2ND9 weather

Brekhus Field
Norma, North Dakota, United States

Public forecast

Using degrees Fahrenheit for public forecast. Weather courtesy of forecast.io.

METAR (pilot weather report)

Closest report is Minot Air Force Base, 32.7 nm (60.6 km) SE. Retrieved 2019/07/23 02:56 UTC (1 hour ago):

KMIB 230256Z AUTO 00000KT 10SM CLR 20/14 A3022 RMK AO2 SLP235 T02030142 57003 $

TAF (pilot weather forecast)

Forecast is more than 12 hours old.

Closest forecast is Minot Air Force Base, 32.7 nm (60.6 km) SE. Retrieved 2019/07/19 17:09 UTC (3 days ago):

TAF KMIB 191700Z 1917/2023 29015G20KT 9999 SKC QNH2976INS BECMG 2000/2001 28009KT 9999 FEW150 QNH2980INS TX25/1922Z TN12/2011Z LAST NO AMDS AFT 1917 NEXT 2909